createdAt,value
2018-09-22T00:00:39.883Z,0.00
2018-09-22T00:01:40.260Z,0.00
2018-09-22T00:02:40.715Z,0.00
2018-09-22T00:03:41.282Z,0.00
2018-09-22T00:04:41.266Z,0.00
2018-09-22T00:05:41.686Z,0.00
2018-09-22T00:06:42.634Z,0.00
2018-09-22T00:07:42.643Z,0.00
2018-09-22T00:08:42.770Z,0.00
2018-09-22T00:09:42.593Z,0.00
2018-09-22T00:10:42.920Z,0.00
2018-09-22T00:11:43.623Z,0.00
2018-09-22T00:12:43.538Z,0.00
2018-09-22T00:13:44.035Z,0.00
2018-09-22T00:14:44.325Z,0.00
2018-09-22T00:15:44.699Z,0.00
2018-09-22T00:16:45.225Z,0.00
2018-09-22T00:17:45.086Z,0.00
2018-09-22T00:18:45.501Z,0.00
2018-09-22T00:19:45.788Z,0.00
2018-09-22T00:20:46.324Z,0.00
2018-09-22T00:21:46.336Z,0.00
2018-09-22T00:22:46.660Z,0.00
2018-09-22T00:23:47.070Z,0.00
2018-09-22T00:24:47.531Z,0.00
2018-09-22T00:25:48.608Z,0.00
2018-09-22T00:26:48.203Z,0.00
2018-09-22T00:27:48.520Z,0.00
2018-09-22T00:28:49.267Z,0.00
2018-09-22T00:29:49.255Z,0.00
2018-09-22T00:30:49.784Z,0.00
2018-09-22T00:31:50.391Z,0.00
2018-09-22T00:32:50.906Z,0.00
2018-09-22T00:33:50.618Z,0.00
2018-09-22T00:34:50.828Z,0.00
2018-09-22T00:35:51.234Z,0.00
2018-09-22T00:36:51.239Z,0.00
2018-09-22T00:37:51.750Z,0.00
2018-09-22T00:38:51.958Z,0.00
2018-09-22T00:39:51.882Z,0.00
2018-09-22T00:40:52.230Z,0.00
2018-09-22T00:41:52.590Z,0.00
2018-09-22T00:42:52.777Z,0.00
2018-09-22T00:43:53.082Z,0.00
2018-09-22T00:44:53.250Z,0.00
2018-09-22T00:45:53.430Z,0.00
2018-09-22T00:46:53.641Z,0.00
2018-09-22T00:47:53.843Z,0.00
2018-09-22T00:48:54.162Z,0.00
2018-09-22T00:49:54.254Z,0.00
2018-09-22T00:50:54.188Z,0.00
2018-09-22T00:51:54.883Z,0.00
2018-09-22T00:52:55.095Z,0.00
2018-09-22T00:53:54.911Z,0.00
2018-09-22T00:54:55.455Z,0.00
2018-09-22T00:55:55.442Z,0.00
2018-09-22T00:56:55.868Z,0.00
2018-09-22T00:57:56.157Z,0.00
2018-09-22T00:58:56.648Z,0.00
2018-09-22T00:59:57.192Z,0.00
2018-09-22T01:00:57.338Z,0.00
2018-09-22T01:01:57.350Z,0.00
2018-09-22T01:02:57.665Z,0.00
2018-09-22T01:03:58.104Z,0.00
2018-09-22T01:04:58.395Z,0.00
2018-09-22T01:05:58.864Z,0.00
2018-09-22T01:06:59.515Z,0.00
2018-09-22T01:07:59.357Z,0.00
2018-09-22T01:08:59.685Z,0.00
2018-09-22T01:10:00.247Z,0.00
2018-09-22T01:11:00.138Z,0.00
2018-09-22T01:12:00.510Z,0.00
2018-09-22T01:13:00.809Z,0.00
2018-09-22T01:14:01.498Z,0.00
2018-09-22T01:15:01.894Z,0.00
2018-09-22T01:16:02.317Z,0.00
2018-09-22T01:17:02.712Z,0.00
2018-09-22T01:18:02.977Z,0.00
2018-09-22T01:19:03.201Z,0.00
2018-09-22T01:20:03.811Z,0.00
2018-09-22T01:22:04.439Z,0.00
2018-09-22T01:23:04.131Z,0.00
2018-09-22T01:24:04.773Z,0.00
2018-09-22T01:25:04.559Z,0.00
2018-09-22T01:26:04.788Z,0.00
2018-09-22T01:27:05.073Z,0.00
2018-09-22T01:28:05.195Z,0.00
2018-09-22T01:29:04.909Z,0.00
2018-09-22T01:30:05.532Z,0.00
2018-09-22T01:31:05.623Z,0.00
2018-09-22T01:32:05.936Z,0.00
2018-09-22T01:33:06.352Z,0.00
2018-09-22T01:34:06.778Z,0.00
2018-09-22T01:35:06.766Z,0.00
2018-09-22T01:36:07.144Z,0.00
2018-09-22T01:37:07.438Z,0.00
2018-09-22T01:38:07.636Z,0.00
2018-09-22T01:39:07.908Z,0.00
2018-09-22T01:40:08.045Z,0.00
2018-09-22T01:41:08.114Z,0.00
2018-09-22T01:42:08.651Z,0.00
2018-09-22T01:43:08.352Z,0.00
2018-09-22T01:44:08.470Z,0.00
2018-09-22T01:45:08.646Z,0.00
2018-09-22T01:46:08.525Z,0.00
2018-09-22T01:47:09.448Z,0.00
2018-09-22T01:48:09.644Z,0.00
2018-09-22T01:49:09.446Z,0.00
2018-09-22T01:50:09.775Z,0.00
2018-09-22T01:51:10.389Z,0.00
2018-09-22T01:52:10.591Z,0.00
2018-09-22T01:53:10.579Z,0.00
2018-09-22T01:54:10.967Z,0.00
2018-09-22T01:55:11.643Z,0.00
2018-09-22T01:56:11.863Z,0.00
2018-09-22T01:57:11.821Z,0.00
2018-09-22T01:58:12.415Z,0.00
2018-09-22T01:59:12.371Z,0.00
2018-09-22T02:00:12.881Z,0.00
2018-09-22T02:01:12.709Z,0.00
2018-09-22T02:02:13.305Z,0.00
2018-09-22T02:03:13.316Z,0.00
2018-09-22T02:04:13.130Z,0.00
2018-09-22T02:05:14.141Z,0.00
2018-09-22T02:06:13.641Z,0.00
2018-09-22T02:07:13.561Z,0.00
2018-09-22T02:08:13.887Z,0.00
2018-09-22T02:09:14.567Z,0.00
2018-09-22T02:10:14.475Z,0.00
2018-09-22T02:11:14.825Z,0.00
2018-09-22T02:12:15.136Z,0.00
2018-09-22T02:13:15.543Z,0.00
2018-09-22T02:14:15.564Z,0.00
2018-09-22T02:15:16.397Z,0.00
2018-09-22T02:16:16.546Z,0.00
2018-09-22T02:17:16.388Z,0.00
2018-09-22T02:18:16.711Z,0.00
2018-09-22T02:19:17.027Z,0.00
2018-09-22T02:20:17.435Z,0.00
2018-09-22T02:21:18.136Z,0.00
2018-09-22T02:22:17.950Z,0.00
2018-09-22T02:23:19.479Z,0.00
2018-09-22T02:24:19.295Z,0.00
2018-09-22T02:25:19.390Z,0.00
2018-09-22T02:26:19.296Z,0.00
2018-09-22T02:27:19.609Z,0.00
2018-09-22T02:28:19.611Z,0.00
2018-09-22T02:29:19.941Z,0.00
2018-09-22T02:30:20.349Z,0.00
2018-09-22T02:31:20.965Z,0.00
2018-09-22T02:32:20.984Z,0.00
2018-09-22T02:33:21.086Z,0.00
2018-09-22T02:34:21.099Z,0.00
2018-09-22T02:35:21.197Z,0.00
2018-09-22T02:36:21.063Z,0.00
2018-09-22T02:37:21.518Z,0.00
2018-09-22T02:38:22.031Z,0.00
2018-09-22T02:40:22.129Z,0.00
2018-09-22T02:41:22.022Z,0.00
2018-09-22T02:42:22.337Z,0.00
2018-09-22T02:43:22.521Z,0.00
2018-09-22T02:44:22.609Z,0.00
2018-09-22T02:45:22.710Z,0.00
2018-09-22T02:46:22.821Z,0.00
2018-09-22T02:47:22.947Z,0.00
2018-09-22T02:48:23.096Z,0.00
2018-09-22T02:49:23.245Z,0.00
2018-09-22T02:50:23.535Z,0.00
2018-09-22T02:51:23.720Z,0.00
2018-09-22T02:52:23.902Z,0.00
2018-09-22T02:53:24.097Z,0.00
2018-09-22T02:54:24.413Z,0.00
2018-09-22T02:55:24.454Z,0.00
2018-09-22T02:56:24.437Z,0.00
2018-09-22T02:57:24.770Z,0.00
2018-09-22T02:58:25.419Z,0.00
2018-09-22T02:59:25.307Z,0.00
2018-09-22T03:00:25.961Z,0.00
2018-09-22T03:01:25.844Z,0.00
2018-09-22T03:02:26.499Z,0.00
2018-09-22T03:03:26.382Z,0.00
2018-09-22T03:04:26.914Z,0.00
2018-09-22T03:05:26.739Z,0.00
2018-09-22T03:06:27.308Z,0.00
2018-09-22T03:07:27.356Z,0.00
2018-09-22T03:08:27.177Z,0.00
2018-09-22T03:09:27.773Z,0.00
2018-09-22T03:10:27.645Z,0.00
2018-09-22T03:11:28.055Z,0.00
2018-09-22T03:12:28.428Z,0.00
2018-09-22T03:13:28.918Z,0.00
2018-09-22T03:14:28.856Z,0.00
2018-09-22T03:15:29.462Z,0.00
2018-09-22T03:16:29.642Z,0.00
2018-09-22T03:17:29.572Z,0.00
2018-09-22T03:18:29.922Z,0.00
2018-09-22T03:19:30.327Z,0.00
2018-09-22T03:20:30.634Z,0.00
2018-09-22T03:21:31.222Z,0.00
2018-09-22T03:22:31.221Z,0.00
2018-09-22T03:23:31.517Z,0.00
2018-09-22T03:24:31.334Z,0.00
2018-09-22T03:26:31.949Z,0.00
2018-09-22T03:27:31.851Z,0.00
2018-09-22T03:28:32.023Z,0.00
2018-09-22T03:29:32.544Z,0.00
2018-09-22T03:30:32.437Z,0.00
2018-09-22T03:31:33.346Z,0.00
2018-09-22T03:32:33.960Z,0.00
2018-09-22T03:33:34.585Z,0.00
2018-09-22T03:34:34.663Z,0.00
2018-09-22T03:35:34.608Z,0.00
2018-09-22T03:36:35.012Z,0.00
2018-09-22T03:37:35.532Z,0.00
2018-09-22T03:38:35.335Z,0.00
2018-09-22T03:39:35.953Z,0.00
2018-09-22T03:40:35.972Z,0.00
2018-09-22T03:41:35.847Z,0.00
2018-09-22T03:42:36.281Z,0.00
2018-09-22T03:43:36.390Z,0.00
2018-09-22T03:44:36.809Z,0.00
2018-09-22T03:45:36.919Z,0.00
2018-09-22T03:46:37.110Z,0.00
2018-09-22T03:47:36.693Z,0.00
2018-09-22T03:48:37.408Z,0.00
2018-09-22T03:49:37.594Z,0.00
2018-09-22T03:50:37.777Z,0.00
2018-09-22T03:51:37.861Z,0.00
2018-09-22T03:52:37.651Z,0.00
2018-09-22T03:53:38.402Z,0.00
2018-09-22T03:54:38.679Z,0.00
2018-09-22T03:55:38.833Z,0.00
2018-09-22T03:56:39.197Z,0.00
2018-09-22T03:57:39.170Z,0.00
2018-09-22T03:58:39.604Z,0.00
2018-09-22T03:59:40.093Z,0.00
2018-09-22T04:00:40.431Z,0.00
2018-09-22T04:01:40.785Z,0.00
2018-09-22T04:02:41.364Z,0.00
2018-09-22T04:03:41.399Z,0.00
2018-09-22T04:04:41.488Z,0.00
2018-09-22T04:05:41.523Z,0.00
2018-09-22T04:06:41.325Z,0.00
2018-09-22T04:07:41.688Z,0.00
2018-09-22T04:08:42.003Z,0.00
2018-09-22T04:09:42.291Z,0.00
2018-09-22T04:10:42.645Z,0.00
2018-09-22T04:11:43.245Z,0.00
2018-09-22T04:12:43.142Z,0.00
2018-09-22T04:13:43.623Z,0.00
2018-09-22T04:14:44.033Z,0.00
2018-09-22T04:15:44.460Z,0.00
2018-09-22T04:16:44.531Z,0.00
2018-09-22T04:17:44.992Z,0.00
2018-09-22T04:18:45.527Z,0.00
2018-09-22T04:19:45.545Z,0.00
2018-09-22T04:20:45.534Z,0.00
2018-09-22T04:21:45.884Z,0.00
2018-09-22T04:22:46.451Z,0.00
2018-09-22T04:23:46.485Z,0.00
2018-09-22T04:24:46.312Z,0.00
2018-09-22T04:25:46.827Z,0.00
2018-09-22T04:26:46.720Z,0.00
2018-09-22T04:27:46.776Z,0.00
2018-09-22T04:28:47.316Z,0.00
2018-09-22T04:29:47.157Z,0.00
2018-09-22T04:30:47.588Z,0.00
2018-09-22T04:31:47.583Z,0.00
2018-09-22T04:32:47.545Z,0.00
2018-09-22T04:33:47.947Z,0.00
2018-09-22T04:34:49.112Z,0.00
2018-09-22T04:35:49.018Z,1.00
2018-09-22T04:36:49.844Z,1.00
2018-09-22T04:37:50.258Z,1.00
2018-09-22T04:38:49.968Z,1.00
2018-09-22T04:39:50.175Z,1.00
2018-09-22T04:40:50.595Z,2.00
2018-09-22T04:41:50.950Z,3.00
2018-09-22T04:42:51.007Z,2.00
2018-09-22T04:43:51.241Z,4.00
2018-09-22T04:44:51.529Z,4.00
2018-09-22T04:45:51.651Z,5.00
2018-09-22T04:46:51.649Z,6.00
2018-09-22T04:47:52.271Z,7.00
2018-09-22T04:48:52.169Z,8.00
2018-09-22T04:49:52.309Z,10.00
2018-09-22T04:50:52.528Z,13.00
2018-09-22T04:51:52.848Z,15.00
2018-09-22T04:52:53.228Z,18.00
2018-09-22T04:53:53.414Z,21.00
2018-09-22T04:54:53.647Z,24.00
2018-09-22T04:55:54.020Z,28.00
2018-09-22T04:56:54.214Z,31.00
2018-09-22T04:57:54.329Z,32.00
2018-09-22T04:58:54.241Z,30.00
2018-09-22T04:59:54.630Z,29.00
2018-09-22T05:00:55.000Z,31.00
2018-09-22T05:01:55.670Z,34.00
2018-09-22T05:02:55.587Z,40.00
2018-09-22T05:03:55.987Z,48.00
2018-09-22T05:04:56.575Z,60.00
2018-09-22T05:05:56.417Z,71.00
2018-09-22T05:06:56.720Z,86.00
2018-09-22T05:07:57.380Z,101.00
2018-09-22T05:08:57.487Z,122.00
2018-09-22T05:09:57.405Z,150.00
2018-09-22T05:10:57.779Z,179.00
2018-09-22T05:11:58.213Z,206.00
2018-09-22T05:12:58.600Z,230.00
2018-09-22T05:13:59.060Z,253.00
2018-09-22T05:14:59.372Z,276.00
2018-09-22T05:15:59.759Z,294.00
2018-09-22T05:17:00.219Z,317.00
2018-09-22T05:18:00.476Z,348.00
2018-09-22T05:19:00.781Z,371.00
2018-09-22T05:20:01.790Z,388.00
2018-09-22T05:21:01.354Z,396.00
2018-09-22T05:22:01.583Z,409.00
2018-09-22T05:23:01.715Z,437.00
2018-09-22T05:24:01.533Z,468.00
2018-09-22T05:25:01.894Z,496.00
2018-09-22T05:26:02.260Z,517.00
2018-09-22T05:27:02.598Z,543.00
2018-09-22T05:28:03.081Z,565.00
2018-09-22T05:29:03.698Z,585.00
2018-09-22T05:30:04.017Z,623.00
2018-09-22T05:31:04.232Z,664.00
2018-09-22T05:32:04.434Z,704.00
2018-09-22T05:33:04.850Z,745.00
2018-09-22T05:34:04.921Z,784.00
2018-09-22T05:35:05.172Z,828.00
2018-09-22T05:36:05.496Z,889.00
2018-09-22T05:37:05.902Z,961.00
2018-09-22T05:38:06.026Z,1027.00
2018-09-22T05:39:06.323Z,1072.00
2018-09-22T05:40:06.637Z,1103.00
2018-09-22T05:41:06.345Z,1137.00
2018-09-22T05:42:06.958Z,1178.00
2018-09-22T05:43:06.963Z,1236.00
2018-09-22T05:44:06.959Z,1325.00
2018-09-22T05:45:06.566Z,1403.00
2018-09-22T05:46:07.110Z,1477.00
2018-09-22T05:47:07.171Z,1577.00
2018-09-22T05:48:07.289Z,1667.00
2018-09-22T05:49:07.360Z,1714.00
2018-09-22T05:50:07.516Z,1738.00
2018-09-22T05:51:07.462Z,1790.00
2018-09-22T05:52:07.277Z,1878.00
2018-09-22T05:53:07.461Z,1977.00
2018-09-22T05:54:07.715Z,2132.00
2018-09-22T05:55:07.854Z,2284.00
2018-09-22T05:56:07.999Z,2406.00
2018-09-22T05:57:07.969Z,2526.00
2018-09-22T05:58:08.749Z,2633.00
2018-09-22T05:59:08.708Z,2682.00
2018-09-22T06:00:08.948Z,2699.00
2018-09-22T06:01:09.785Z,2752.00
2018-09-22T06:02:09.984Z,2834.00
2018-09-22T06:03:09.791Z,2878.00
2018-09-22T06:04:10.347Z,2898.00
2018-09-22T06:05:10.360Z,2950.00
2018-09-22T06:06:10.233Z,3036.00
2018-09-22T06:07:10.627Z,3190.00
2018-09-22T06:08:11.184Z,3430.00
2018-09-22T06:09:11.657Z,3668.00
2018-09-22T06:10:12.157Z,3817.00
2018-09-22T06:11:12.511Z,3878.00
2018-09-22T06:12:12.504Z,3910.00
2018-09-22T06:13:12.855Z,3933.00
2018-09-22T06:14:13.265Z,3962.00
2018-09-22T06:15:13.483Z,3926.00
2018-09-22T06:16:13.363Z,3866.00
2018-09-22T06:17:13.771Z,3862.00
2018-09-22T06:18:14.948Z,3886.00
2018-09-22T06:19:14.606Z,3925.00
2018-09-22T06:20:14.567Z,3967.00
2018-09-22T06:21:15.042Z,4024.00
2018-09-22T06:22:15.500Z,4133.00
2018-09-22T06:23:16.038Z,4226.00
2018-09-22T06:24:16.547Z,4273.00
2018-09-22T06:25:16.385Z,4318.00
2018-09-22T06:26:16.616Z,4397.00
2018-09-22T06:27:17.190Z,4488.00
2018-09-22T06:28:17.125Z,4608.00
2018-09-22T06:29:17.538Z,4690.00
2018-09-22T06:30:18.125Z,0.00
2018-09-22T06:31:18.045Z,4858.00
2018-09-22T06:32:19.264Z,4979.00
2018-09-22T06:33:19.477Z,5254.00
2018-09-22T06:34:19.800Z,5571.00
2018-09-22T06:35:20.004Z,5633.00
2018-09-22T06:36:20.325Z,5568.00
2018-09-22T06:37:20.747Z,5535.00
2018-09-22T06:38:21.253Z,5592.00
2018-09-22T06:39:21.460Z,5559.00
2018-09-22T06:40:21.877Z,5658.00
2018-09-22T06:41:21.914Z,5726.00
2018-09-22T06:42:21.853Z,5883.00
2018-09-22T06:43:22.191Z,6131.00
2018-09-22T06:44:22.416Z,6443.00
2018-09-22T06:45:22.608Z,6612.00
2018-09-22T06:46:22.805Z,6753.00
2018-09-22T06:47:22.839Z,6902.00
2018-09-22T06:48:23.043Z,6959.00
2018-09-22T06:49:23.269Z,6947.00
2018-09-22T06:50:23.465Z,6871.00
2018-09-22T06:51:23.665Z,6783.00
2018-09-22T06:52:24.047Z,6775.00
2018-09-22T06:53:24.247Z,6753.00
2018-09-22T06:54:24.260Z,6758.00
2018-09-22T06:55:24.693Z,6871.00
2018-09-22T06:56:25.105Z,7005.00
2018-09-22T06:57:25.108Z,7202.00
2018-09-22T06:58:25.554Z,7511.00
2018-09-22T06:59:26.011Z,7740.00
2018-09-22T07:00:26.333Z,7677.00
2018-09-22T07:01:26.651Z,7713.00
2018-09-22T07:02:27.074Z,7865.00
2018-09-22T07:03:27.686Z,8153.00
2018-09-22T07:04:27.504Z,8555.00
2018-09-22T07:05:27.907Z,8933.00
2018-09-22T07:06:28.663Z,9059.00
2018-09-22T07:07:28.814Z,8986.00
2018-09-22T07:08:28.748Z,9037.00
2018-09-22T07:09:29.045Z,9081.00
2018-09-22T07:10:29.377Z,9094.00
2018-09-22T07:11:29.801Z,8980.00
2018-09-22T07:12:29.834Z,8943.00
2018-09-22T07:13:30.459Z,9052.00
2018-09-22T07:14:30.499Z,9276.00
2018-09-22T07:15:30.778Z,9480.00
2018-09-22T07:16:30.835Z,9545.00
2018-09-22T07:17:30.745Z,9426.00
2018-09-22T07:18:31.173Z,9429.00
2018-09-22T07:19:31.642Z,9565.00
2018-09-22T07:20:32.015Z,9691.00
2018-09-22T07:21:32.452Z,9689.00
2018-09-22T07:22:32.418Z,9734.00
2018-09-22T07:23:32.534Z,9878.00
2018-09-22T07:24:33.180Z,10131.00
2018-09-22T07:25:33.538Z,10344.00
2018-09-22T07:26:34.576Z,10107.00
2018-09-22T07:27:34.485Z,9851.00
2018-09-22T07:28:34.788Z,9826.00
2018-09-22T07:29:35.204Z,9665.00
2018-09-22T07:30:35.509Z,9586.00
2018-09-22T07:31:35.943Z,9513.00
2018-09-22T07:32:36.225Z,10220.00
2018-09-22T07:33:36.358Z,10186.00
2018-09-22T07:34:36.568Z,10810.00
2018-09-22T07:35:36.869Z,11780.00
2018-09-22T07:36:37.103Z,14310.00
2018-09-22T07:37:37.189Z,16645.00
2018-09-22T07:38:37.270Z,65536.00
2018-09-22T07:39:37.287Z,65536.00
2018-09-22T07:40:37.317Z,65536.00
2018-09-22T07:41:37.299Z,65536.00
2018-09-22T07:42:37.594Z,65536.00
2018-09-22T07:43:37.806Z,65536.00
2018-09-22T07:44:38.012Z,65536.00
2018-09-22T07:45:38.183Z,16992.00
2018-09-22T07:46:38.284Z,15783.00
2018-09-22T07:47:38.491Z,15371.00
2018-09-22T07:48:38.670Z,15920.00
2018-09-22T07:49:38.950Z,15973.00
2018-09-22T07:50:39.202Z,16744.00
2018-09-22T07:51:39.573Z,65536.00
2018-09-22T07:52:39.385Z,65536.00
2018-09-22T07:53:39.738Z,65536.00
2018-09-22T07:54:40.344Z,65536.00
2018-09-22T07:55:40.463Z,16299.00
2018-09-22T07:56:40.367Z,16140.00
2018-09-22T07:57:40.962Z,16595.00
2018-09-22T07:58:41.037Z,16679.00
2018-09-22T07:59:40.993Z,16861.00
2018-09-22T08:00:41.402Z,65536.00
2018-09-22T08:01:41.719Z,65536.00
2018-09-22T08:02:42.165Z,65536.00
2018-09-22T08:03:42.553Z,65536.00
2018-09-22T08:05:42.641Z,65536.00
2018-09-22T08:06:43.185Z,65536.00
2018-09-22T08:07:43.179Z,65536.00
2018-09-22T08:08:43.577Z,65536.00
2018-09-22T08:09:44.132Z,65536.00
2018-09-22T08:10:43.991Z,65536.00
2018-09-22T08:11:44.347Z,65536.00
2018-09-22T08:12:44.640Z,65536.00
2018-09-22T08:13:45.173Z,65536.00
2018-09-22T08:14:45.723Z,65536.00
2018-09-22T08:15:45.525Z,65536.00
2018-09-22T08:16:45.986Z,65536.00
2018-09-22T08:17:46.536Z,65536.00
2018-09-22T08:18:46.405Z,65536.00
2018-09-22T08:19:46.720Z,65536.00
2018-09-22T08:20:47.266Z,65536.00
2018-09-22T08:21:47.516Z,65536.00
2018-09-22T08:22:47.368Z,65536.00
2018-09-22T08:23:48.150Z,65536.00
2018-09-22T08:25:48.779Z,65536.00
2018-09-22T08:26:48.888Z,65536.00
2018-09-22T08:27:49.002Z,65536.00
2018-09-22T08:28:49.208Z,65536.00
2018-09-22T08:29:49.419Z,65536.00
2018-09-22T08:30:49.735Z,65536.00
2018-09-22T08:31:49.943Z,65536.00
2018-09-22T08:32:50.268Z,65536.00
2018-09-22T08:33:50.578Z,65536.00
2018-09-22T08:34:51.091Z,65536.00
2018-09-22T08:35:50.688Z,65536.00
2018-09-22T08:36:51.188Z,65536.00
2018-09-22T08:37:51.226Z,16959.00
2018-09-22T08:38:51.940Z,15848.00
2018-09-22T08:39:51.637Z,15429.00
2018-09-22T08:40:51.542Z,15954.00
2018-09-22T08:41:52.052Z,15789.00
2018-09-22T08:42:52.171Z,14820.00
2018-09-22T08:43:52.187Z,14545.00
2018-09-22T08:44:52.450Z,14297.00
2018-09-22T08:45:52.792Z,13936.00
2018-09-22T08:46:52.900Z,13855.00
2018-09-22T08:47:53.074Z,14058.00
2018-09-22T08:48:53.245Z,14740.00
2018-09-22T08:49:53.502Z,15559.00
2018-09-22T08:50:53.616Z,16503.00
2018-09-22T08:51:53.995Z,65536.00
2018-09-22T08:52:54.245Z,65536.00
2018-09-22T08:53:54.409Z,65536.00
2018-09-22T08:54:54.262Z,65536.00
2018-09-22T08:55:54.560Z,65536.00
2018-09-22T08:56:55.200Z,65536.00
2018-09-22T08:57:55.472Z,65536.00
2018-09-22T08:58:55.261Z,65536.00
2018-09-22T08:59:55.630Z,65536.00
2018-09-22T09:00:56.001Z,65536.00
2018-09-22T09:01:56.100Z,65536.00
2018-09-22T09:02:56.493Z,65536.00
2018-09-22T09:03:56.895Z,65536.00
2018-09-22T09:04:57.447Z,65536.00
2018-09-22T09:05:57.750Z,65536.00
2018-09-22T09:06:57.669Z,65536.00
2018-09-22T09:07:57.585Z,65536.00
2018-09-22T09:08:57.877Z,65536.00
2018-09-22T09:09:58.454Z,65536.00
2018-09-22T09:10:58.516Z,65536.00
2018-09-22T09:11:58.570Z,65536.00
2018-09-22T09:12:58.459Z,65536.00
2018-09-22T09:13:58.951Z,65536.00
2018-09-22T09:14:59.457Z,65536.00
2018-09-22T09:15:59.270Z,65536.00
2018-09-22T09:16:59.654Z,65536.00
2018-09-22T09:17:59.901Z,65536.00
2018-09-22T09:18:59.805Z,65536.00
2018-09-22T09:20:00.451Z,65536.00
2018-09-22T09:21:00.348Z,65536.00
2018-09-22T09:22:00.747Z,65536.00
2018-09-22T09:23:01.246Z,65536.00
2018-09-22T09:24:01.580Z,65536.00
2018-09-22T09:25:02.263Z,65536.00
2018-09-22T09:26:02.422Z,65536.00
2018-09-22T09:27:03.106Z,65536.00
2018-09-22T09:28:02.764Z,65536.00
2018-09-22T09:29:02.954Z,65536.00
2018-09-22T09:30:03.331Z,65536.00
2018-09-22T09:31:04.257Z,65536.00
2018-09-22T09:32:04.478Z,65536.00
2018-09-22T09:33:04.998Z,65536.00
2018-09-22T09:34:04.896Z,65536.00
2018-09-22T09:35:04.898Z,65536.00
2018-09-22T09:36:05.114Z,65536.00
2018-09-22T09:38:05.342Z,65536.00
2018-09-22T09:39:05.947Z,65536.00
2018-09-22T09:40:05.543Z,65536.00
2018-09-22T09:41:06.063Z,65536.00
2018-09-22T09:42:06.274Z,65536.00
2018-09-22T09:43:06.473Z,65536.00
2018-09-22T09:44:06.383Z,65536.00
2018-09-22T09:45:06.498Z,65536.00
2018-09-22T09:46:06.711Z,65536.00
2018-09-22T09:47:07.012Z,65536.00
2018-09-22T09:48:07.047Z,65536.00
2018-09-22T09:49:07.112Z,65536.00
2018-09-22T09:50:07.029Z,65536.00
2018-09-22T09:51:07.377Z,65536.00
2018-09-22T09:52:07.598Z,65536.00
2018-09-22T09:53:07.623Z,65536.00
2018-09-22T09:54:07.600Z,65536.00
2018-09-22T09:55:08.201Z,65536.00
2018-09-22T09:56:08.080Z,65536.00
2018-09-22T09:57:08.771Z,65536.00
2018-09-22T09:58:09.181Z,65536.00
2018-09-22T09:59:09.267Z,65536.00
2018-09-22T10:00:09.007Z,65536.00
2018-09-22T10:01:09.288Z,65536.00
2018-09-22T10:02:09.820Z,65536.00
2018-09-22T10:03:09.666Z,65536.00
2018-09-22T10:04:10.537Z,65536.00
2018-09-22T10:05:10.743Z,65536.00
2018-09-22T10:06:10.609Z,65536.00
2018-09-22T10:07:11.288Z,65536.00
2018-09-22T10:08:11.380Z,65536.00
2018-09-22T10:09:11.702Z,65536.00
2018-09-22T10:10:11.673Z,65536.00
2018-09-22T10:11:12.133Z,65536.00
2018-09-22T10:12:12.437Z,65536.00
2018-09-22T10:13:12.779Z,65536.00
2018-09-22T10:14:13.480Z,65536.00
2018-09-22T10:15:13.434Z,65536.00
2018-09-22T10:16:13.788Z,65536.00
2018-09-22T10:17:14.209Z,65536.00
2018-09-22T10:18:14.514Z,65536.00
2018-09-22T10:19:15.024Z,65536.00
2018-09-22T10:20:15.219Z,65536.00
2018-09-22T10:21:15.240Z,65536.00
2018-09-22T10:22:15.834Z,65536.00
2018-09-22T10:23:15.897Z,65536.00
2018-09-22T10:24:15.892Z,65536.00
2018-09-22T10:25:16.629Z,65536.00
2018-09-22T10:27:16.606Z,65536.00
2018-09-22T10:28:17.178Z,65536.00
2018-09-22T10:29:17.252Z,65536.00
2018-09-22T10:30:17.454Z,65536.00
2018-09-22T10:31:17.324Z,65536.00
2018-09-22T10:32:17.741Z,65536.00
2018-09-22T10:33:18.801Z,65536.00
2018-09-22T10:34:18.708Z,65536.00
2018-09-22T10:35:19.626Z,65536.00
2018-09-22T10:36:19.939Z,65536.00
2018-09-22T10:37:20.355Z,65536.00
2018-09-22T10:38:20.689Z,65536.00
2018-09-22T10:39:20.993Z,65536.00
2018-09-22T10:40:21.194Z,65536.00
2018-09-22T10:41:21.509Z,65536.00
2018-09-22T10:42:22.272Z,65536.00
2018-09-22T10:43:21.831Z,65536.00
2018-09-22T10:44:21.744Z,65536.00
2018-09-22T10:45:22.231Z,65536.00
2018-09-22T10:46:22.439Z,65536.00
2018-09-22T10:47:22.521Z,65536.00
2018-09-22T10:48:22.624Z,65536.00
2018-09-22T10:49:22.693Z,65536.00
2018-09-22T10:50:22.857Z,65536.00
2018-09-22T10:51:23.073Z,65536.00
2018-09-22T10:52:23.313Z,65536.00
2018-09-22T10:53:23.531Z,65536.00
2018-09-22T10:54:23.890Z,65536.00
2018-09-22T10:55:24.118Z,65536.00
2018-09-22T10:56:24.288Z,65536.00
2018-09-22T10:57:24.481Z,65536.00
2018-09-22T10:58:24.668Z,65536.00
2018-09-22T10:59:24.560Z,65536.00
2018-09-22T11:00:25.122Z,65536.00
2018-09-22T11:01:25.119Z,65536.00
2018-09-22T11:02:25.635Z,65536.00
2018-09-22T11:03:25.448Z,65536.00
2018-09-22T11:04:25.666Z,65536.00
2018-09-22T11:05:25.934Z,65536.00
2018-09-22T11:06:26.382Z,65536.00
2018-09-22T11:07:26.991Z,65536.00
2018-09-22T11:08:27.156Z,65536.00
2018-09-22T11:09:27.577Z,65536.00
2018-09-22T11:10:27.973Z,65536.00
2018-09-22T11:11:28.335Z,65536.00
2018-09-22T11:12:28.811Z,65536.00
2018-09-22T11:13:28.959Z,65536.00
2018-09-22T11:14:28.755Z,65536.00
2018-09-22T11:15:29.170Z,65536.00
2018-09-22T11:16:29.548Z,65536.00
2018-09-22T11:17:29.857Z,65536.00
2018-09-22T11:18:30.181Z,65536.00
2018-09-22T11:19:30.558Z,65536.00
2018-09-22T11:20:30.907Z,65536.00
2018-09-22T11:21:31.220Z,65536.00
2018-09-22T11:22:31.518Z,65536.00
2018-09-22T11:23:31.845Z,65536.00
2018-09-22T11:24:32.339Z,65536.00
2018-09-22T11:25:32.720Z,65536.00
2018-09-22T11:26:33.780Z,65536.00
2018-09-22T11:27:33.794Z,65536.00
2018-09-22T11:28:33.706Z,65536.00
2018-09-22T11:29:34.215Z,65536.00
2018-09-22T11:30:34.632Z,65536.00
2018-09-22T11:31:34.945Z,16269.00
2018-09-22T11:32:35.074Z,15862.00
2018-09-22T11:33:35.478Z,14988.00
2018-09-22T11:34:35.992Z,14399.00
2018-09-22T11:35:36.303Z,14543.00
2018-09-22T11:36:36.818Z,15730.00
2018-09-22T11:37:36.519Z,15364.00
2018-09-22T11:38:36.635Z,14249.00
2018-09-22T11:39:36.836Z,14562.00
2018-09-22T11:40:37.138Z,14385.00
2018-09-22T11:41:37.233Z,14858.00
2018-09-22T11:42:37.442Z,15635.00
2018-09-22T11:43:37.520Z,15604.00
2018-09-22T11:44:37.590Z,65536.00
2018-09-22T11:45:37.694Z,65536.00
2018-09-22T11:46:37.808Z,65536.00
2018-09-22T11:47:37.945Z,65536.00
2018-09-22T11:48:38.237Z,65536.00
2018-09-22T11:49:38.413Z,65536.00
2018-09-22T11:50:38.622Z,65536.00
2018-09-22T11:51:39.110Z,65536.00
2018-09-22T11:52:39.213Z,65536.00
2018-09-22T11:53:39.283Z,65536.00
2018-09-22T11:54:39.189Z,65536.00
2018-09-22T11:55:39.560Z,65536.00
2018-09-22T11:56:39.839Z,65536.00
2018-09-22T11:57:40.429Z,65536.00
2018-09-22T11:58:40.536Z,65536.00
2018-09-22T11:59:40.573Z,65536.00
2018-09-22T12:01:40.489Z,65536.00
2018-09-22T12:02:41.264Z,65536.00
2018-09-22T12:03:41.346Z,65536.00
2018-09-22T12:04:41.584Z,65536.00
2018-09-22T12:05:41.434Z,65536.00
2018-09-22T12:06:42.160Z,65536.00
2018-09-22T12:07:41.858Z,65536.00
2018-09-22T12:08:42.468Z,65536.00
2018-09-22T12:09:42.655Z,65536.00
2018-09-22T12:10:42.499Z,65536.00
2018-09-22T12:11:42.814Z,65536.00
2018-09-22T12:12:43.321Z,65536.00
2018-09-22T12:13:43.647Z,65536.00
2018-09-22T12:14:44.136Z,65536.00
2018-09-22T12:15:44.512Z,65536.00
2018-09-22T12:16:44.808Z,65536.00
2018-09-22T12:17:45.333Z,65536.00
2018-09-22T12:18:45.332Z,65536.00
2018-09-22T12:19:45.217Z,65536.00
2018-09-22T12:20:45.804Z,65536.00
2018-09-22T12:21:46.147Z,65536.00
2018-09-22T12:22:46.457Z,65536.00
2018-09-22T12:23:46.785Z,65536.00
2018-09-22T12:24:47.290Z,65536.00
2018-09-22T12:25:47.295Z,65536.00
2018-09-22T12:26:47.456Z,65536.00
2018-09-22T12:27:47.309Z,65536.00
2018-09-22T12:28:47.642Z,65536.00
2018-09-22T12:29:48.020Z,65536.00
2018-09-22T12:30:49.360Z,65536.00
2018-09-22T12:31:49.683Z,65536.00
2018-09-22T12:32:49.884Z,65536.00
2018-09-22T12:33:50.107Z,65536.00
2018-09-22T12:34:50.815Z,65536.00
2018-09-22T12:35:50.620Z,65536.00